Time;durP1;ratioP1;P1;durP2;ratioP2;P2;SDS_P1;SDS_P2;PMS_P1;PMS_P2;Temp;Humidity;BMP_temperature;BMP_pressure;BME280_temperature;BME280_humidity;BME280_pressure;Samples;Min_cycle;Max_cycle;Signal;HPM_P1;HPM_P2
2022/12/10 00:02:11;;;;;;;22.25;15.65;;;;;;;1.69;85.18;99918.95;1578545;89;21614;-72
2022/12/10 00:04:37;;;;;;;27.73;18.50;;;;;;;1.70;85.23;99911.52;1572083;88;21519;-72
2022/12/10 00:07:04;;;;;;;22.17;16.80;;;;;;;1.71;85.26;99910.13;1571095;89;21827;-72
2022/12/10 00:09:31;;;;;;;25.37;17.15;;;;;;;1.73;85.25;99899.63;1559244;89;20996;-72
2022/12/10 00:11:58;;;;;;;21.33;15.75;;;;;;;1.76;85.28;99892.16;1569316;89;21020;-72
2022/12/10 00:14:25;;;;;;;24.23;15.88;;;;;;;1.76;85.28;99888.25;1569445;89;21138;-72
2022/12/10 00:16:51;;;;;;;22.80;15.15;;;;;;;1.77;85.27;99892.53;1553070;90;22556;-72
2022/12/10 00:19:18;;;;;;;20.88;14.47;;;;;;;1.78;85.32;99882.50;1549682;90;22624;-72
2022/12/10 00:21:45;;;;;;;19.87;14.53;;;;;;;1.79;85.32;99880.27;1575024;89;21157;-72
2022/12/10 00:24:12;;;;;;;20.77;13.90;;;;;;;1.80;85.29;99872.84;1574817;89;21585;-71
2022/12/10 00:26:39;;;;;;;20.10;13.50;;;;;;;1.79;85.31;99868.55;1588783;89;21068;-71
2022/12/10 00:29:08;;;;;;;19.07;12.53;;;;;;;1.80;85.33;99867.17;1547683;90;21127;-72
2022/12/10 00:31:36;;;;;;;21.80;13.95;;;;;;;1.80;85.34;99871.08;1540155;90;21939;-72
2022/12/10 00:34:06;;;;;;;23.65;15.43;;;;;;;1.81;85.34;99865.41;1574880;89;21125;-73
2022/12/10 00:36:41;;;;;;;40.58;28.40;;;;;;;1.81;85.35;99862.34;1589679;88;21046;-72
2022/12/10 00:39:09;;;;;;;35.92;20.30;;;;;;;1.84;85.36;99853.55;1561155;89;21098;-72
2022/12/10 00:41:36;;;;;;;27.65;18.27;;;;;;;1.83;85.36;99854.44;1554503;90;21072;-72
2022/12/10 00:44:03;;;;;;;29.75;18.25;;;;;;;1.84;85.41;99843.14;1571726;88;22689;-73
2022/12/10 00:46:30;;;;;;;26.65;17.00;;;;;;;1.84;85.43;99849.19;1556874;90;21053;-71
2022/12/10 00:48:58;;;;;;;28.90;17.77;;;;;;;1.84;85.46;99841.83;1571658;89;21106;-72
2022/12/10 00:51:25;;;;;;;30.40;18.45;;;;;;;1.85;85.45;99839.14;1554832;90;21157;-71
2022/12/10 00:53:54;;;;;;;26.75;17.75;;;;;;;1.86;85.46;99838.68;1564740;90;21019;-71
2022/12/10 00:56:24;;;;;;;28.45;16.80;;;;;;;1.86;85.48;99833.02;1536369;91;22695;-71
2022/12/10 00:58:50;;;;;;;22.30;15.38;;;;;;;1.88;85.52;99843.34;1587256;88;21136;-72
2022/12/10 01:01:28;;;;;;;34.43;18.25;;;;;;;1.89;85.60;99845.02;1576552;89;21073;-71
2022/12/10 01:03:58;;;;;;;32.65;20.70;;;;;;;1.90;85.67;99838.42;1577669;89;21240;-71
2022/12/10 01:06:35;;;;;;;25.02;17.25;;;;;;;1.91;85.71;99822.34;1575493;88;21155;-72
2022/12/10 01:09:05;;;;;;;24.32;16.40;;;;;;;1.93;85.74;99830.91;1577958;89;22646;-71
2022/12/10 01:11:37;;;;;;;23.67;16.90;;;;;;;1.94;85.76;99826.11;1593785;88;21109;-71
2022/12/10 01:14:06;;;;;;;30.85;22.90;;;;;;;1.94;85.80;99825.64;1566207;90;21139;-73
2022/12/10 01:16:34;;;;;;;23.45;15.38;;;;;;;1.95;85.84;99822.58;1579014;89;21106;-72
2022/12/10 01:19:01;;;;;;;19.85;14.98;;;;;;;1.95;85.86;99824.72;1583160;89;21094;-72
2022/12/10 01:21:28;;;;;;;18.37;13.93;;;;;;;1.96;85.90;99835.98;1573141;88;22410;-72
2022/12/10 01:23:56;;;;;;;20.55;13.30;;;;;;;1.96;85.95;99834.21;1590465;88;21068;-72
2022/12/10 01:26:28;;;;;;;15.63;11.33;;;;;;;1.96;85.92;99832.07;1588273;89;21045;-72
2022/12/10 01:28:55;;;;;;;19.87;11.83;;;;;;;1.95;85.91;99832.53;1585478;88;21060;-76
2022/12/10 01:31:26;;;;;;;21.75;12.93;;;;;;;1.93;85.95;99829.17;1587621;88;21230;-74
2022/12/10 01:33:53;;;;;;;15.38;11.20;;;;;;;1.93;85.96;99831.78;1573867;89;21987;-73
2022/12/10 01:36:25;;;;;;;24.77;11.65;;;;;;;1.92;85.97;99826.63;1580128;89;21240;-72
2022/12/10 01:38:52;;;;;;;34.13;12.65;;;;;;;1.90;86.01;99818.89;1568751;90;21021;-72
2022/12/10 01:41:24;;;;;;;19.90;11.33;;;;;;;1.90;86.04;99815.45;1578800;89;21066;-72
2022/12/10 01:44:12;;;;;;;22.23;12.47;;;;;;;1.88;86.08;99810.79;1590989;88;21761;-72
2022/12/10 01:46:42;;;;;;;18.42;10.48;;;;;;;1.88;86.13;99805.13;1579810;88;22515;-72
2022/12/10 01:49:13;;;;;;;19.60;9.73;;;;;;;1.87;86.13;99802.14;1575258;88;22139;-72
2022/12/10 01:51:42;;;;;;;17.48;8.68;;;;;;;1.88;86.15;99792.56;1589966;88;21076;-72
2022/12/10 01:54:13;;;;;;;16.77;8.90;;;;;;;1.89;86.11;99787.73;1577724;88;21030;-72
2022/12/10 01:56:44;;;;;;;16.23;9.53;;;;;;;1.89;86.14;99790.34;1578846;89;21111;-72
2022/12/10 01:59:13;;;;;;;21.87;12.07;;;;;;;1.89;86.16;99781.22;1581924;88;21967;-72
2022/12/10 02:02:09;;;;;;;23.83;11.68;;;;;;;1.88;86.12;99780.37;1580521;88;21159;-72
2022/12/10 02:04:57;;;;;;;32.17;18.67;;;;;;;1.89;86.15;99772.11;1575409;90;21050;-72
2022/12/10 02:07:56;;;;;;;30.50;12.95;;;;;;;1.88;86.15;99763.92;1600918;88;21125;-72
2022/12/10 02:10:50;;;;;;;21.15;11.75;;;;;;;1.88;86.13;99758.71;1576793;89;21020;-74
2022/12/10 02:13:31;;;;;;;37.33;18.50;;;;;;;1.87;86.14;99765.68;1551475;90;21983;-73
2022/12/10 02:16:24;;;;;;;32.23;17.82;;;;;;;1.86;86.16;99770.98;1579447;89;21416;-75
2022/12/10 02:18:58;;;;;;;27.90;13.83;;;;;;;1.84;86.21;99754.60;1546497;91;21694;-76
2022/12/10 02:21:35;;;;;;;32.83;24.32;;;;;;;1.84;86.28;99752.84;1550307;89;21570;-72
2022/12/10 02:24:05;;;;;;;30.48;16.35;;;;;;;1.85;86.26;99771.91;1567945;88;21184;-72
2022/12/10 02:26:50;;;;;;;28.75;23.60;;;;;;;1.85;86.23;99758.88;1568116;90;21936;-72
2022/12/10 02:29:23;;;;;;;25.77;15.35;;;;;;;1.85;86.27;99768.00;1570206;90;21078;-71
2022/12/10 02:31:58;;;;;;;21.37;11.10;;;;;;;1.84;86.28;99754.60;1556924;89;22776;-71
2022/12/10 02:34:25;;;;;;;30.75;12.93;;;;;;;1.84;86.31;99737.67;1561120;89;21103;-71
2022/12/10 02:36:53;;;;;;;13.98;9.43;;;;;;;1.84;86.30;99745.48;1584527;88;21010;-72
2022/12/10 02:39:24;;;;;;;15.83;8.95;;;;;;;1.83;86.29;99752.43;1568953;89;21746;-71
2022/12/10 02:41:54;;;;;;;11.60;8.65;;;;;;;1.81;86.29;99756.88;1540618;90;21598;-71
2022/12/10 02:44:22;;;;;;;12.65;8.83;;;;;;;1.81;86.34;99748.23;1582156;89;21148;-71
2022/12/10 02:46:50;;;;;;;10.93;8.75;;;;;;;1.79;86.33;99745.72;1599886;88;21444;-71
2022/12/10 02:49:16;;;;;;;14.07;9.75;;;;;;;1.78;86.33;99747.94;1567301;88;21443;-72
2022/12/10 02:51:43;;;;;;;28.12;13.00;;;;;;;1.77;86.36;99752.78;1574310;88;22518;-71
2022/12/10 02:54:41;;;;;;;11.03;8.53;;;;;;;1.76;86.39;99755.00;1570058;89;21068;-71
2022/12/10 02:57:37;;;;;;;11.70;7.03;;;;;;;1.75;86.40;99749.42;1566177;89;21097;-71
2022/12/10 03:00:15;;;;;;;10.85;6.60;;;;;;;1.75;86.42;99745.98;1581476;88;21455;-71
2022/12/10 03:03:12;;;;;;;11.20;7.15;;;;;;;1.72;86.43;99745.66;1568889;89;21042;-73
2022/12/10 03:05:54;;;;;;;12.10;7.20;;;;;;;1.71;86.45;99740.08;1578598;88;22382;-73
2022/12/10 03:08:28;;;;;;;14.58;8.63;;;;;;;1.69;86.48;99744.06;1575259;89;20932;-71
2022/12/10 03:11:06;;;;;;;13.15;10.43;;;;;;;1.69;86.50;99742.77;1590623;87;21175;-74
2022/12/10 03:13:38;;;;;;;11.20;8.20;;;;;;;1.69;86.50;99735.41;1580622;88;21559;-72
2022/12/10 03:16:05;;;;;;;13.30;7.55;;;;;;;1.67;86.51;99723.78;1560552;89;21169;-71
2022/12/10 03:18:33;;;;;;;14.28;8.18;;;;;;;1.66;86.53;99716.91;1586043;88;21835;-71
2022/12/10 03:21:02;;;;;;;10.75;6.65;;;;;;;1.66;86.52;99713.00;1594921;88;21161;-78
2022/12/10 03:23:29;;;;;;;17.92;7.65;;;;;;;1.66;86.53;99710.86;1583957;88;21116;-72
2022/12/10 03:25:55;;;;;;;26.50;6.85;;;;;;;1.64;86.50;99712.25;1584300;88;21149;-75
2022/12/10 03:28:22;;;;;;;10.15;5.65;;;;;;;1.64;86.52;99711.37;1589302;88;21059;-71
2022/12/10 03:30:48;;;;;;;23.50;8.65;;;;;;;1.65;86.54;99713.92;1561963;90;21950;-71
2022/12/10 03:33:15;;;;;;;33.40;7.40;;;;;;;1.64;86.54;99708.34;1573932;89;21063;-72
2022/12/10 03:35:42;;;;;;;16.52;4.97;;;;;;;1.64;86.54;99700.53;1583052;88;21523;-71
2022/12/10 03:38:08;;;;;;;6.05;5.45;;;;;;;1.63;86.52;99702.73;1594431;88;21159;-71
2022/12/10 03:40:35;;;;;;;6.85;5.80;;;;;;;1.62;86.53;99708.86;1587776;88;21065;-72
2022/12/10 03:43:01;;;;;;;10.70;7.00;;;;;;;1.61;86.56;99708.95;1588006;88;21942;-73
2022/12/10 03:45:28;;;;;;;16.75;8.40;;;;;;;1.61;86.58;99714.15;1580172;88;21060;-72
2022/12/10 03:47:54;;;;;;;10.98;8.55;;;;;;;1.61;86.62;99711.55;1581669;88;21104;-71
2022/12/10 03:50:20;;;;;;;13.58;8.40;;;;;;;1.59;86.61;99694.72;1568325;89;21128;-71
2022/12/10 03:52:47;;;;;;;13.28;7.50;;;;;;;1.59;86.61;99693.41;1568993;89;21157;-72
2022/12/10 03:55:14;;;;;;;13.22;10.25;;;;;;;1.59;86.64;99692.58;1569340;89;22251;-71
2022/12/10 03:57:41;;;;;;;16.52;9.58;;;;;;;1.57;86.64;99683.55;1582308;88;21129;-72
2022/12/10 04:00:09;;;;;;;12.07;8.10;;;;;;;1.59;86.67;99682.16;1584106;88;21132;-72
2022/12/10 04:02:38;;;;;;;17.82;8.95;;;;;;;1.60;86.70;99691.65;1599061;88;21082;-71
2022/12/10 04:05:06;;;;;;;30.68;9.83;;;;;;;1.60;86.71;99686.45;1587996;88;21034;-72
2022/12/10 04:07:34;;;;;;;28.70;12.18;;;;;;;1.60;86.72;99686.45;1575844;88;21949;-71
2022/12/10 04:10:02;;;;;;;21.02;12.82;;;;;;;1.61;86.72;99701.14;1574105;89;21052;-71
2022/12/10 04:12:28;;;;;;;27.20;13.13;;;;;;;1.59;86.74;99701.22;1577903;89;21234;-72
2022/12/10 04:17:41;;;;;;;35.38;17.65;;;;;;;1.57;86.76;99692.66;1588093;88;21058;-71
2022/12/10 04:26:51;;;;;;;35.92;17.52;;;;;;;1.57;86.79;99702.23;1581849;88;21947;-72
2022/12/10 04:28:08;;;;;;;37.10;18.75;;;;;;;1.58;86.89;99696.11;1578915;89;21064;-72
2022/12/10 04:30:35;;;;;;;37.65;18.80;;;;;;;1.59;86.92;99688.67;1559949;90;21042;-72
2022/12/10 04:33:02;;;;;;;35.83;17.65;;;;;;;1.60;86.92;99679.94;1572554;90;22700;-72
2022/12/10 04:35:28;;;;;;;37.10;20.65;;;;;;;1.61;86.95;99685.05;1574613;90;21101;-72
2022/12/10 04:37:55;;;;;;;46.70;23.87;;;;;;;1.62;86.95;99697.14;1568323;90;21096;-72
2022/12/10 04:40:22;;;;;;;44.73;24.55;;;;;;;1.62;86.96;99689.34;1571182;89;21065;-76
2022/12/10 04:42:50;;;;;;;49.30;25.02;;;;;;;1.63;86.96;99681.91;1590387;88;21481;-73
2022/12/10 04:45:16;;;;;;;50.40;25.68;;;;;;;1.65;86.95;99680.55;1585463;89;22652;-72
2022/12/10 04:47:43;;;;;;;45.63;23.05;;;;;;;1.65;86.99;99665.77;1581590;88;21407;-72
2022/12/10 04:50:10;;;;;;;40.20;22.75;;;;;;;1.67;86.97;99655.27;1580513;88;21076;-72
2022/12/10 04:52:38;;;;;;;53.33;26.95;;;;;;;1.67;86.97;99650.06;1574943;89;21060;-72
2022/12/10 04:55:06;;;;;;;40.25;21.25;;;;;;;1.68;86.95;99657.78;1581145;88;21168;-72
2022/12/10 04:57:32;;;;;;;55.38;27.02;;;;;;;1.67;86.95;99657.41;1582982;89;22255;-71
2022/12/10 04:59:58;;;;;;;57.85;28.50;;;;;;;1.67;86.94;99655.27;1595540;88;21225;-71
2022/12/10 05:02:25;;;;;;;55.30;28.30;;;;;;;1.66;86.94;99655.73;1582254;88;21109;-71
2022/12/10 05:04:51;;;;;;;58.00;26.82;;;;;;;1.68;86.96;99651.27;1596095;88;21322;-74
2022/12/10 05:07:17;;;;;;;106.35;34.70;;;;;;;1.71;86.96;99643.75;1588630;88;21174;-71
2022/12/10 05:09:44;;;;;;;139.77;37.48;;;;;;;1.73;86.96;99657.05;1544618;90;21859;-71
2022/12/10 05:12:10;;;;;;;140.90;39.55;;;;;;;1.77;86.99;99647.80;1581192;89;21073;-71
2022/12/10 05:14:37;;;;;;;114.15;36.55;;;;;;;1.78;86.94;99646.87;1576908;89;21103;-72
2022/12/10 05:17:04;;;;;;;112.32;35.40;;;;;;;1.78;86.92;99650.77;1584116;88;21092;-71
2022/12/10 05:19:30;;;;;;;96.50;31.07;;;;;;;1.77;86.90;99657.74;1587009;89;21044;-71
2022/12/10 05:24:42;;;;;;;67.42;24.27;;;;;;;1.77;86.90;99650.40;1580396;88;21107;-75
2022/12/10 05:27:09;;;;;;;59.75;23.62;;;;;;;1.76;86.87;99648.72;1578774;89;21119;-71
2022/12/10 05:29:36;;;;;;;68.07;28.12;;;;;;;1.76;86.87;99643.52;1597184;88;21085;-71
2022/12/10 05:32:04;;;;;;;96.47;34.63;;;;;;;1.75;86.89;99641.84;1584582;89;21103;-71
2022/12/10 05:34:32;;;;;;;82.42;29.30;;;;;;;1.75;86.88;99635.33;1587945;89;21052;-71
2022/12/10 05:36:59;;;;;;;91.20;33.73;;;;;;;1.76;86.90;99632.64;1588864;87;21492;-71
2022/12/10 05:39:25;;;;;;;96.55;35.95;;;;;;;1.75;86.86;99631.42;1582092;89;21127;-71
2022/12/10 05:41:52;;;;;;;111.55;42.20;;;;;;;1.73;86.87;99638.83;1583741;89;21513;-71
2022/12/10 05:44:18;;;;;;;124.67;46.45;;;;;;;1.74;86.89;99637.09;1597338;89;21233;-71
2022/12/10 05:46:45;;;;;;;113.80;47.40;;;;;;;1.75;86.91;99629.66;1586053;88;21970;-71
2022/12/10 05:49:11;;;;;;;126.15;51.20;;;;;;;1.75;86.90;99627.05;1583773;89;21143;-71
2022/12/10 05:51:38;;;;;;;133.03;53.85;;;;;;;1.76;86.90;99631.80;1583722;88;21106;-71
2022/12/10 05:54:06;;;;;;;127.32;50.43;;;;;;;1.77;86.94;99627.80;1587193;88;21057;-71
2022/12/10 05:56:32;;;;;;;135.95;50.35;;;;;;;1.79;86.91;99627.72;1576347;88;21113;-73
2022/12/10 05:59:01;;;;;;;122.62;45.15;;;;;;;1.79;86.92;99623.34;1569557;90;21972;-72
2022/12/10 06:01:31;;;;;;;132.55;45.90;;;;;;;1.80;86.90;99612.47;1573301;88;21244;-72
2022/12/10 06:03:59;;;;;;;113.83;46.55;;;;;;;1.79;86.89;99605.13;1557366;90;21103;-71
2022/12/10 06:06:29;;;;;;;95.65;38.50;;;;;;;1.80;86.91;99602.05;1594980;88;22346;-71
2022/12/10 06:08:56;;;;;;;75.85;33.73;;;;;;;1.81;86.90;99598.06;1585310;88;21119;-71
2022/12/10 06:11:26;;;;;;;81.40;32.55;;;;;;;1.81;86.91;99598.52;1572561;89;22031;-71
2022/12/10 06:13:54;;;;;;;70.57;30.12;;;;;;;1.82;86.94;99602.80;1577087;87;21013;-72
2022/12/10 06:16:21;;;;;;;60.75;26.70;;;;;;;1.83;86.92;99597.50;1537582;91;21152;-71
2022/12/10 06:18:48;;;;;;;38.20;19.98;;;;;;;1.85;86.92;99590.94;1589097;88;21130;-71
2022/12/10 06:21:16;;;;;;;35.52;17.30;;;;;;;1.87;86.92;99596.42;1590260;88;21211;-71
2022/12/10 06:23:43;;;;;;;38.45;17.00;;;;;;;1.88;86.89;99587.69;1564159;90;21972;-70
2022/12/10 06:26:13;;;;;;;33.67;15.48;;;;;;;1.88;86.89;99590.29;1589805;88;21095;-70
2022/12/10 06:28:40;;;;;;;27.60;15.10;;;;;;;1.88;86.86;99593.36;1594973;88;21153;-73
2022/12/10 06:31:06;;;;;;;36.08;17.65;;;;;;;1.86;86.83;99599.12;1591585;88;21791;-71
2022/12/10 06:33:33;;;;;;;41.33;20.32;;;;;;;1.85;86.86;99594.38;1594019;88;21648;-70
2022/12/10 06:35:59;;;;;;;42.17;21.87;;;;;;;1.85;86.86;99596.98;1578424;88;21929;-73
2022/12/10 06:38:26;;;;;;;49.03;23.87;;;;;;;1.86;86.88;99588.70;1581902;89;21632;-73
2022/12/10 06:40:53;;;;;;;45.88;22.27;;;;;;;1.86;86.88;99588.23;1596665;87;21043;-73
2022/12/10 06:43:20;;;;;;;35.52;19.42;;;;;;;1.87;86.92;99588.61;1596813;88;21122;-71
2022/12/10 06:45:47;;;;;;;28.87;17.37;;;;;;;1.90;86.99;99584.52;1585949;88;21133;-73
2022/12/10 06:48:14;;;;;;;31.75;17.35;;;;;;;1.93;86.99;99576.56;1580770;88;21830;-73
2022/12/10 06:50:41;;;;;;;37.40;19.23;;;;;;;1.97;86.98;99569.40;1581690;89;21585;-74
2022/12/10 06:53:08;;;;;;;41.80;20.40;;;;;;;1.97;86.95;99581.95;1581075;88;21173;-74
2022/12/10 06:55:38;;;;;;;52.62;23.65;;;;;;;1.98;86.97;99576.28;1599076;88;21100;-71
2022/12/10 06:58:04;;;;;;;43.45;20.37;;;;;;;1.99;86.97;99567.55;1590642;88;21220;-74
2022/12/10 07:00:31;;;;;;;45.78;20.95;;;;;;;2.00;86.97;99560.09;1575012;89;21785;-73
2022/12/10 07:02:58;;;;;;;37.38;19.40;;;;;;;2.02;87.00;99566.05;1591982;88;21193;-73
2022/12/10 07:05:25;;;;;;;41.83;21.07;;;;;;;2.04;87.04;99557.72;1591586;88;21101;-73
2022/12/10 07:07:52;;;;;;;32.15;17.48;;;;;;;2.07;87.06;99538.00;1574672;89;21122;-71
2022/12/10 07:10:18;;;;;;;29.52;16.65;;;;;;;2.12;87.09;99529.90;1607586;88;21093;-74
2022/12/10 07:12:46;;;;;;;29.57;17.57;;;;;;;2.15;87.07;99547.98;1588110;88;21121;-75
2022/12/10 07:15:13;;;;;;;41.08;17.85;;;;;;;2.15;87.04;99551.42;1565284;88;21102;-75
2022/12/10 07:17:40;;;;;;;38.48;20.50;;;;;;;2.16;87.05;99543.14;1576566;88;21140;-77
2022/12/10 07:20:11;;;;;;;37.33;22.40;;;;;;;2.18;87.11;99534.30;1570968;89;21115;-73
2022/12/10 07:22:38;;;;;;;35.58;21.20;;;;;;;2.23;87.14;99522.32;1583749;88;21106;-73
2022/12/10 07:25:05;;;;;;;34.38;20.70;;;;;;;2.28;87.15;99526.78;1582054;88;21923;-75
2022/12/10 07:27:32;;;;;;;30.15;19.75;;;;;;;2.30;87.17;99525.75;1578965;89;21189;-75
2022/12/10 07:29:59;;;;;;;40.78;24.72;;;;;;;2.35;87.16;99532.48;1561791;89;21110;-77
2022/12/10 07:32:27;;;;;;;32.35;21.07;;;;;;;2.37;87.17;99531.92;1560035;89;21527;-75
2022/12/10 07:34:54;;;;;;;43.60;26.68;;;;;;;2.39;87.17;99529.59;1554843;90;21103;-75
2022/12/10 07:37:21;;;;;;;47.35;28.27;;;;;;;2.43;87.19;99524.59;1565568;89;22635;-71
2022/12/10 07:39:47;;;;;;;51.73;27.82;;;;;;;2.45;87.18;99525.33;1575782;89;21539;-72
2022/12/10 07:42:13;;;;;;;65.40;33.20;;;;;;;2.48;87.19;99521.22;1567012;89;21649;-72
2022/12/10 07:44:40;;;;;;;68.55;35.92;;;;;;;2.51;87.21;99521.50;1569203;90;21119;-71
2022/12/10 07:47:07;;;;;;;69.47;35.60;;;;;;;2.54;87.19;99518.27;1571610;89;21080;-76
2022/12/10 07:49:33;;;;;;;59.40;32.35;;;;;;;2.57;87.21;99506.80;1576332;88;22440;-76
2022/12/10 07:52:00;;;;;;;53.80;30.90;;;;;;;2.59;87.19;99491.91;1577176;88;21544;-78
2022/12/10 07:54:27;;;;;;;53.80;30.52;;;;;;;2.61;87.19;99497.88;1569085;90;21088;-76
2022/12/10 07:56:53;;;;;;;50.83;28.17;;;;;;;2.64;87.17;99487.27;1584758;89;21910;-75
2022/12/10 07:59:20;;;;;;;47.90;27.25;;;;;;;2.65;87.13;99479.81;1583996;88;21685;-80
2022/12/10 08:01:47;;;;;;;45.50;27.48;;;;;;;2.66;87.10;99472.36;1581872;89;21930;-80
2022/12/10 08:04:14;;;;;;;53.33;27.35;;;;;;;2.69;87.12;99464.33;1557885;89;21646;-72
2022/12/10 08:06:41;;;;;;;43.65;23.57;;;;;;;2.71;87.10;99457.75;1576326;89;21562;-73
2022/12/10 08:09:09;;;;;;;30.95;17.40;;;;;;;2.71;87.05;99452.06;1585605;88;21611;-71
2022/12/10 08:11:36;;;;;;;21.40;12.93;;;;;;;2.73;87.04;99448.89;1545762;90;21069;-73
2022/12/10 08:14:02;;;;;;;16.85;10.90;;;;;;;2.73;87.02;99444.98;1557092;90;22564;-73
2022/12/10 08:16:31;;;;;;;12.55;9.98;;;;;;;2.75;87.03;99445.72;1575845;88;21041;-75
2022/12/10 08:18:59;;;;;;;17.20;11.20;;;;;;;2.77;87.01;99433.88;1572643;87;21063;-76
2022/12/10 08:21:28;;;;;;;16.12;10.78;;;;;;;2.78;86.99;99429.87;1582826;88;21155;-77
2022/12/10 08:23:55;;;;;;;15.70;10.75;;;;;;;2.80;87.02;99416.77;1582271;88;21923;-77
2022/12/10 08:26:24;;;;;;;20.15;12.55;;;;;;;2.82;87.02;99406.59;1575132;87;23210;-76
2022/12/10 08:28:50;;;;;;;20.70;13.00;;;;;;;2.85;87.09;99399.04;1582892;89;21054;-76
2022/12/10 08:31:18;;;;;;;21.85;13.93;;;;;;;2.90;87.15;99390.94;1570643;89;21072;-76
2022/12/10 08:33:45;;;;;;;19.07;12.73;;;;;;;2.93;87.16;99392.88;1573330;88;21099;-75
2022/12/10 08:36:12;;;;;;;19.65;12.88;;;;;;;2.96;87.19;99393.97;1561042;91;20990;-71
2022/12/10 08:38:39;;;;;;;18.67;12.65;;;;;;;3.00;87.23;99392.03;1584294;90;21881;-71
2022/12/10 08:41:08;;;;;;;23.95;14.40;;;;;;;3.03;87.24;99385.30;1583303;89;21563;-71
2022/12/10 08:43:34;;;;;;;22.00;14.80;;;;;;;3.05;87.25;99384.26;1592907;87;21075;-70
2022/12/10 08:46:01;;;;;;;25.25;16.85;;;;;;;3.08;87.27;99376.69;1591495;89;21001;-74
2022/12/10 08:48:28;;;;;;;25.27;17.45;;;;;;;3.11;87.27;99370.00;1573184;89;21213;-75
2022/12/10 08:50:55;;;;;;;30.52;17.17;;;;;;;3.14;87.30;99365.88;1589114;89;21562;-74
2022/12/10 08:53:22;;;;;;;29.40;17.45;;;;;;;3.15;87.30;99359.72;1595254;89;21053;-75
2022/12/10 08:55:52;;;;;;;30.23;18.15;;;;;;;3.18;87.30;99354.29;1572055;90;21116;-74
2022/12/10 08:58:19;;;;;;;24.98;17.10;;;;;;;3.20;87.33;99345.91;1571060;90;21063;-75
2022/12/10 09:00:47;;;;;;;31.37;19.02;;;;;;;3.22;87.33;99334.91;1566192;88;21088;-75
2022/12/10 09:03:14;;;;;;;32.38;20.92;;;;;;;3.25;87.34;99328.64;1609346;88;22469;-75
2022/12/10 09:05:41;;;;;;;32.65;21.68;;;;;;;3.27;87.36;99326.76;1575629;89;21059;-74
2022/12/10 09:08:08;;;;;;;32.80;21.25;;;;;;;3.31;87.39;99325.64;1573047;89;21123;-70
2022/12/10 09:10:37;;;;;;;33.67;19.42;;;;;;;3.33;87.39;99327.20;1581195;89;21105;-71
2022/12/10 09:13:04;;;;;;;29.07;17.98;;;;;;;3.36;87.41;99313.09;1534519;92;21270;-71
2022/12/10 09:15:30;;;;;;;33.23;19.95;;;;;;;3.38;87.42;99305.56;1559163;90;21841;-70
2022/12/10 09:17:57;;;;;;;33.28;22.00;;;;;;;3.41;87.44;99304.04;1576142;89;21056;-71
2022/12/10 09:20:23;;;;;;;33.53;21.55;;;;;;;3.43;87.40;99312.59;1595390;88;21088;-71
2022/12/10 09:22:50;;;;;;;34.25;19.23;;;;;;;3.45;87.42;99309.88;1606618;88;21047;-71
2022/12/10 09:25:16;;;;;;;35.90;22.73;;;;;;;3.46;87.41;99306.33;1546927;90;21158;-71
2022/12/10 09:27:43;;;;;;;37.20;21.68;;;;;;;3.48;87.38;99299.72;1583323;89;22295;-71
2022/12/10 09:30:12;;;;;;;43.63;23.55;;;;;;;3.50;87.38;99296.53;1593738;87;21129;-71
2022/12/10 09:32:38;;;;;;;43.35;25.17;;;;;;;3.52;87.36;99286.34;1572557;89;21048;-71
2022/12/10 09:35:07;;;;;;;53.95;28.02;;;;;;;3.55;87.36;99283.98;1582404;89;21107;-71
2022/12/10 09:37:33;;;;;;;40.85;25.05;;;;;;;3.58;87.39;99278.58;1585262;89;21012;-71
2022/12/10 09:40:00;;;;;;;46.77;25.02;;;;;;;3.61;87.42;99274.44;1579049;89;21916;-72
2022/12/10 09:42:44;;;;;;;47.35;25.88;;;;;;;3.63;87.42;99270.78;1586047;88;21134;-71
2022/12/10 09:45:38;;;;;;;55.45;28.00;;;;;;;3.67;87.44;99272.73;1585870;89;21173;-70
2022/12/10 09:48:16;;;;;;;46.70;27.03;;;;;;;3.69;87.47;99258.62;1577200;89;21252;-70
2022/12/10 09:51:00;;;;;;;54.25;27.20;;;;;;;3.73;87.51;99251.39;1567670;88;21035;-71
2022/12/10 09:53:27;;;;;;;51.90;26.70;;;;;;;3.76;87.54;99252.48;1586021;89;21863;-72
2022/12/10 09:55:54;;;;;;;60.30;27.17;;;;;;;3.80;87.58;99248.73;1591013;88;21028;-70
2022/12/10 09:58:24;;;;;;;46.13;26.02;;;;;;;3.84;87.62;99250.17;1584519;88;21168;-70
2022/12/10 10:00:55;;;;;;;50.60;25.40;;;;;;;3.88;87.64;99252.95;1580425;90;21124;-70
2022/12/10 10:03:22;;;;;;;58.28;26.33;;;;;;;3.92;87.65;99249.65;1577159;89;21269;-70
2022/12/10 10:05:53;;;;;;;66.70;25.15;;;;;;;3.94;87.66;99245.14;1603351;89;21908;-70
2022/12/10 10:08:38;;;;;;;52.13;25.40;;;;;;;3.96;87.68;99236.28;1570999;89;21087;-70
2022/12/10 10:11:05;;;;;;;54.55;26.27;;;;;;;4.01;87.74;99238.55;1591480;88;21131;-71
2022/12/10 10:13:42;;;;;;;68.40;25.68;;;;;;;4.05;87.76;99232.63;1552511;90;21176;-70
2022/12/10 10:16:47;;;;;;;44.20;24.43;;;;;;;4.08;87.79;99228.52;1564877;90;21019;-70
2022/12/10 10:19:24;;;;;;;51.68;24.63;;;;;;;4.10;87.82;99230.06;1580435;89;21985;-71
2022/12/10 10:21:51;;;;;;;58.38;24.82;;;;;;;4.14;87.85;99227.59;1581276;89;20983;-71
2022/12/10 10:24:23;;;;;;;49.70;24.25;;;;;;;4.17;87.87;99228.70;1588122;89;21086;-70
2022/12/10 10:26:51;;;;;;;78.28;24.63;;;;;;;4.19;87.85;99225.97;1575762;89;21551;-70
2022/12/10 10:29:20;;;;;;;55.52;26.15;;;;;;;4.22;87.86;99220.03;1569273;90;21050;-70
2022/12/10 10:31:46;;;;;;;80.95;27.13;;;;;;;4.21;87.78;99206.61;1574036;89;22027;-70
2022/12/10 10:34:21;;;;;;;130.82;26.05;;;;;;;4.23;87.74;99192.13;1576440;90;21031;-70
2022/12/10 10:36:54;;;;;;;52.83;25.43;;;;;;;4.22;87.65;99196.99;1581935;89;21107;-70
2022/12/10 10:39:29;;;;;;;63.28;25.55;;;;;;;4.19;87.58;99196.75;1597813;88;21057;-70
2022/12/10 10:41:58;;;;;;;62.62;24.57;;;;;;;4.17;87.53;99189.97;1555520;90;21074;-71
2022/12/10 10:44:27;;;;;;;112.00;25.40;;;;;;;4.16;87.54;99176.07;1578793;90;21930;-71
2022/12/10 10:46:55;;;;;;;107.75;23.50;;;;;;;4.16;87.49;99177.85;1559445;90;21196;-70
2022/12/10 10:49:32;;;;;;;66.30;24.52;;;;;;;4.14;87.46;99171.88;1582833;89;21121;-71
2022/12/10 10:52:05;;;;;;;63.15;24.05;;;;;;;4.16;87.45;99177.85;1582739;89;21083;-70
2022/12/10 10:54:40;;;;;;;78.33;25.43;;;;;;;4.16;87.44;99171.32;1573612;90;21110;-79
2022/12/10 10:57:34;;;;;;;73.92;25.48;;;;;;;4.17;87.48;99163.84;1572351;90;21788;-70
2022/12/10 11:00:09;;;;;;;79.25;26.15;;;;;;;4.21;87.55;99167.41;1572591;89;21021;-70
2022/12/10 11:02:41;;;;;;;90.75;27.02;;;;;;;4.25;87.56;99162.81;1557102;89;21572;-71
2022/12/10 11:05:26;;;;;;;103.35;29.77;;;;;;;4.28;87.62;99167.81;1594243;88;21076;-70
2022/12/10 11:08:05;;;;;;;129.93;28.45;;;;;;;4.30;87.63;99169.36;1578860;88;20943;-74
2022/12/10 11:10:31;;;;;;;94.07;27.25;;;;;;;4.34;87.71;99167.34;1573575;90;21855;-77
2022/12/10 11:13:07;;;;;;;113.95;27.65;;;;;;;4.37;87.73;99158.47;1555451;89;21092;-72
2022/12/10 11:15:37;;;;;;;142.15;29.65;;;;;;;4.40;87.77;99145.99;1563020;90;21077;-73
2022/12/10 11:18:16;;;;;;;109.10;29.02;;;;;;;4.44;87.83;99144.84;1567668;89;21536;-70
2022/12/10 11:20:43;;;;;;;139.50;29.72;;;;;;;4.47;87.84;99135.92;1561300;89;21053;-71
2022/12/10 11:23:12;;;;;;;157.03;33.50;;;;;;;4.49;87.82;99132.24;1572095;89;22153;-71
2022/12/10 11:25:57;;;;;;;134.70;33.50;;;;;;;4.50;87.81;99127.38;1580922;89;21064;-73
2022/12/10 11:28:38;;;;;;;140.28;33.42;;;;;;;4.52;87.79;99122.85;1588094;88;21244;-71
2022/12/10 11:31:29;;;;;;;151.45;34.80;;;;;;;4.54;87.84;99122.77;1570733;90;21091;-71
2022/12/10 11:34:10;;;;;;;193.70;38.00;;;;;;;4.58;87.93;99115.04;1571520;90;21087;-70
2022/12/10 11:37:24;;;;;;;149.05;37.23;;;;;;;4.62;88.01;99116.94;1552295;89;21896;-70
2022/12/10 11:40:11;;;;;;;147.40;37.00;;;;;;;4.68;88.12;99113.88;1585673;88;21051;-73
2022/12/10 11:43:03;;;;;;;186.10;41.50;;;;;;;4.74;88.20;99112.11;1571664;90;21111;-72
2022/12/10 11:45:49;;;;;;;155.75;41.55;;;;;;;4.78;88.26;99110.92;1556896;90;21095;-78
2022/12/10 11:48:24;;;;;;;208.35;44.73;;;;;;;4.82;88.36;99101.87;1562060;89;21014;-77
2022/12/10 11:51:16;;;;;;;206.10;44.42;;;;;;;4.88;88.47;99097.50;1560424;89;21905;-77